Palau, PW

10:37 PM PWT on October 31, 2014 (GMT +0900)
Guam International | Change Station
CLOSE
Current Station
Airport
Location: Guam Agana,
Elevation: 269 ft
Nearby Weather Stations

Elev 269 ft 13.48 °N, 144.80 °E | Updated 43 minutes ago

Mostly Cloudy
Mostly Cloudy
78 °F
Feels Like 78 °F
N
0
Wind Variable Wind from North

Today
High -- | Low -- °F
--% Chance of Precip.
Yesterday
High -- | Low -- °F
Precip. -- in
5:49 AM 5:41 PM
First Quarter, 55% visible
Pressure 29.80 in
Visibility 10.0 miles
Clouds Few 2000 ft
Mostly Cloudy 3900 ft
Mostly Cloudy 4700 ft
Dew Point 75 °F
Humidity 90%
Rainfall 0.04 in
Snow Depth Not available.
UV 0 out of 12
Pollen Not available.
Air Quality Not available.
Flu Activity Not available.
METAR PGUM 311254Z 00000KT 10SM FEW020 BKN039 BKN047 26/24 A2982 RMK AO2 SLP091 T02560239

More Conditions Fewer Conditions

Pressure 29.80 in
Visibility 10.0 miles
Clouds Few 2000 ft
Mostly Cloudy 3900 ft
Mostly Cloudy 4700 ft
Dew Point 75 °F
Humidity 90%
Rainfall 0.04 in
Snow Depth Not available.
UV 0 out of 12
Pollen Not available.
Air Quality Not available.
Flu Activity Not available.
METAR PGUM 311254Z 00000KT 10SM FEW020 BKN039 BKN047 26/24 A2982 RMK AO2 SLP091 T02560239

More Conditions Fewer Conditions

10-Day Weather Forecast

Almanac

Astronomy

Oct. 31, 2014 Rise Set
Actual Time
Civil Twilight
Nautical Twilight
Astronomical Twilight
Moon
Length of Visible Light
Length of Day
Tomorrow will be .
, % of the Moon is Illuminated

Today's Extremes

State Highs State Lows

Community

WunderPhotos

Upload Photos

1,766,610 photos uploaded!

WunderBlogs® & News

Nearby

Air Quality

  Air Quality AQ Index Pollutant
Not available.

Snow Depth

Station Depth Elevation

Earthquake Activity

City Distance Mag. Time & Date
Minimum magnitude displayed is 2.5.

Coastal Water Temperatures

Place Temperature

Nearby Weather Stations